Time;durP1;ratioP1;P1;durP2;ratioP2;P2;SDS_P1;SDS_P2;PMS_P1;PMS_P2;Temp;Humidity;BMP_temperature;BMP_pressure;BME280_temperature;BME280_humidity;BME280_pressure;Samples;Min_cycle;Max_cycle;Signal;HPM_P1;HPM_P2
2022/12/15 00:42:52;;;;;;;;;35.75;33.25;;;;;;;;6488741;31;8898;-60
2022/12/15 00:48:54;;;;;;;;;37.00;34.75;;;;;;;;6487896;39;8955;-60
2022/12/15 01:20:20;;;;;;;;;36.00;33.00;;;;;;;;6488267;31;8991;-58
2022/12/15 01:26:22;;;;;;;;;34.00;28.25;;;;;;;;6488434;39;8856;-60
2022/12/15 01:32:26;;;;;;;;;29.75;28.25;;;;;;;;6486721;31;8979;-59
2022/12/15 01:38:29;;;;;;;;;39.75;29.75;;;;;;;;6488746;39;8841;-60
2022/12/15 01:44:31;;;;;;;;;33.75;32.00;;;;;;;;6488015;39;8884;-59
2022/12/15 01:50:41;;;;;;;;;29.00;28.75;;;;;;;;6487411;39;8943;-59
2022/12/15 01:56:47;;;;;;;;;29.25;28.00;;;;;;;;6488925;31;9503;-59
2022/12/15 02:02:49;;;;;;;;;29.75;26.75;;;;;;;;6486959;39;9621;-59
2022/12/15 02:08:54;;;;;;;;;32.25;29.25;;;;;;;;6487734;39;8883;-60
2022/12/15 02:15:08;;;;;;;;;38.50;35.75;;;;;;;;6486650;46;8964;-59
2022/12/15 02:21:19;;;;;;;;;39.00;34.75;;;;;;;;6487455;31;8836;-60
2022/12/15 02:27:36;;;;;;;;;37.00;33.25;;;;;;;;6487958;39;8868;-59
2022/12/15 02:33:51;;;;;;;;;41.00;35.00;;;;;;;;6486897;46;8933;-59
2022/12/15 02:39:55;;;;;;;;;38.75;36.25;;;;;;;;6487510;46;8879;-59
2022/12/15 02:46:26;;;;;;;;;37.25;33.50;;;;;;;;6488635;31;8907;-59
2022/12/15 02:52:37;;;;;;;;;37.25;32.50;;;;;;;;6487591;31;9682;-61
2022/12/15 02:58:42;;;;;;;;;32.25;30.25;;;;;;;;6487519;39;9504;-60
2022/12/15 03:04:44;;;;;;;;;37.50;36.50;;;;;;;;6487783;39;9026;-58
2022/12/15 03:10:49;;;;;;;;;39.75;32.50;;;;;;;;6487830;31;8901;-60
2022/12/15 03:16:53;;;;;;;;;34.75;31.25;;;;;;;;6487230;31;8867;-59
2022/12/15 03:22:56;;;;;;;;;44.00;34.75;;;;;;;;6487005;39;8884;-59
2022/12/15 03:28:58;;;;;;;;;33.00;32.75;;;;;;;;6486996;31;8873;-59
2022/12/15 03:35:00;;;;;;;;;35.50;31.25;;;;;;;;6486108;39;8923;-61
2022/12/15 03:41:03;;;;;;;;;39.75;30.50;;;;;;;;6486597;31;8868;-60
2022/12/15 03:47:12;;;;;;;;;29.50;24.25;;;;;;;;6487258;31;8889;-58
2022/12/15 03:53:15;;;;;;;;;27.75;27.75;;;;;;;;6488060;31;9124;-59
2022/12/15 03:59:16;;;;;;;;;30.50;26.75;;;;;;;;6486599;47;8918;-60
2022/12/15 04:05:21;;;;;;;;;31.25;23.75;;;;;;;;6487275;39;8945;-60
2022/12/15 04:11:23;;;;;;;;;30.50;27.75;;;;;;;;6487555;39;9002;-59
2022/12/15 04:17:25;;;;;;;;;33.00;29.25;;;;;;;;6487122;39;8884;-59
2022/12/15 04:23:29;;;;;;;;;29.25;25.50;;;;;;;;6487151;31;8829;-60
2022/12/15 05:33:37;;;;;;;;;26.00;24.50;;;;;;;;6488490;39;8925;-63
2022/12/15 05:39:39;;;;;;;;;31.25;29.00;;;;;;;;6491745;39;8900;-62
2022/12/15 05:45:41;;;;;;;;;25.75;25.50;;;;;;;;6492273;39;8877;-63
2022/12/15 05:51:46;;;;;;;;;33.25;29.50;;;;;;;;6491697;31;9008;-62
2022/12/15 05:57:53;;;;;;;;;23.75;21.75;;;;;;;;6491413;31;9048;-64
2022/12/15 06:03:57;;;;;;;;;35.75;28.00;;;;;;;;6490489;39;8974;-64
2022/12/15 06:09:59;;;;;;;;;33.75;28.25;;;;;;;;6490973;39;8933;-63
2022/12/15 06:16:14;;;;;;;;;35.25;24.75;;;;;;;;6491410;46;8874;-64
2022/12/15 06:22:17;;;;;;;;;29.50;27.75;;;;;;;;6490630;31;8931;-62
2022/12/15 06:28:22;;;;;;;;;30.75;27.25;;;;;;;;6309186;31;10001255;-63
2022/12/15 06:34:25;;;;;;;;;35.25;31.50;;;;;;;;6488970;46;8911;-63
2022/12/15 06:40:27;;;;;;;;;36.75;28.75;;;;;;;;6520716;31;8887;-65
2022/12/15 06:46:37;;;;;;;;;34.25;31.00;;;;;;;;6490025;39;8895;-64
2022/12/15 06:52:41;;;;;;;;;38.00;32.25;;;;;;;;6489538;39;8944;-64
2022/12/15 06:58:43;;;;;;;;;45.75;36.50;;;;;;;;6489808;39;8922;-63
2022/12/15 07:04:52;;;;;;;;;38.25;35.00;;;;;;;;6490648;31;9016;-63
2022/12/15 07:10:54;;;;;;;;;44.25;39.00;;;;;;;;6488804;47;8840;-63
2022/12/15 07:16:56;;;;;;;;;46.00;41.00;;;;;;;;6489441;39;8900;-63
2022/12/15 07:23:06;;;;;;;;;40.25;38.25;;;;;;;;6488014;39;9532;-65
2022/12/15 07:29:13;;;;;;;;;47.00;40.25;;;;;;;;6488870;31;8868;-63
2022/12/15 07:35:24;;;;;;;;;61.25;50.75;;;;;;;;6488996;39;8905;-62
2022/12/15 07:41:28;;;;;;;;;40.75;35.75;;;;;;;;6489149;31;8906;-62
2022/12/15 07:47:32;;;;;;;;;52.50;42.50;;;;;;;;6489214;39;8856;-62
2022/12/15 07:53:36;;;;;;;;;51.75;45.50;;;;;;;;6487347;31;8990;-62
2022/12/15 07:59:38;;;;;;;;;54.25;46.75;;;;;;;;6488765;39;8830;-64
2022/12/15 08:05:40;;;;;;;;;46.00;39.75;;;;;;;;6490191;31;9020;-64
2022/12/15 08:11:43;;;;;;;;;45.00;42.00;;;;;;;;6488178;39;8914;-62
2022/12/15 08:17:47;;;;;;;;;38.75;37.25;;;;;;;;6488994;39;8877;-63
2022/12/15 08:23:49;;;;;;;;;53.50;44.25;;;;;;;;6488647;31;8949;-63
2022/12/15 08:29:52;;;;;;;;;43.25;39.25;;;;;;;;6490109;31;8873;-62
2022/12/15 08:36:01;;;;;;;;;39.75;37.25;;;;;;;;6489953;46;8881;-64
2022/12/15 08:42:08;;;;;;;;;35.00;31.50;;;;;;;;6490720;31;8902;-64
2022/12/15 08:48:10;;;;;;;;;39.00;30.50;;;;;;;;6489665;31;8896;-63
2022/12/15 08:54:12;;;;;;;;;35.25;31.00;;;;;;;;6489594;39;8953;-64
2022/12/15 09:00:14;;;;;;;;;38.75;36.75;;;;;;;;6489191;39;8897;-63
2022/12/15 09:06:33;;;;;;;;;39.00;34.50;;;;;;;;6487322;39;8960;-63
2022/12/15 09:12:37;;;;;;;;;40.25;33.00;;;;;;;;6487042;39;8960;-64
2022/12/15 09:18:47;;;;;;;;;35.50;31.00;;;;;;;;6487968;39;9144;-63
2022/12/15 09:24:49;;;;;;;;;26.00;25.50;;;;;;;;6486794;39;8898;-63
2022/12/15 09:30:51;;;;;;;;;29.00;26.00;;;;;;;;6487046;39;8957;-66
2022/12/15 09:36:55;;;;;;;;;31.25;30.00;;;;;;;;6485558;39;8976;-65
2022/12/15 09:42:57;;;;;;;;;26.25;25.50;;;;;;;;6488644;39;9513;-64
2022/12/15 09:49:28;;;;;;;;;21.75;20.50;;;;;;;;6488999;39;8918;-62
2022/12/15 09:55:33;;;;;;;;;17.50;15.00;;;;;;;;6488536;31;8998;-63
2022/12/15 10:02:08;;;;;;;;;32.50;32.00;;;;;;;;6487810;46;8966;-63
2022/12/15 10:08:13;;;;;;;;;27.25;22.50;;;;;;;;6483679;46;8940;-62
2022/12/15 10:14:48;;;;;;;;;28.00;22.00;;;;;;;;6485139;39;8976;-63
2022/12/15 10:20:55;;;;;;;;;36.50;31.25;;;;;;;;6484863;39;8950;-64
2022/12/15 10:27:16;;;;;;;;;29.75;29.50;;;;;;;;6483912;46;8961;-65
2022/12/15 10:33:23;;;;;;;;;29.50;27.75;;;;;;;;6483863;31;8968;-65
2022/12/15 10:39:44;;;;;;;;;21.00;20.50;;;;;;;;6482550;39;8914;-66
2022/12/15 10:46:03;;;;;;;;;23.00;22.25;;;;;;;;6483404;39;9607;-65
2022/12/15 10:52:26;;;;;;;;;26.25;24.75;;;;;;;;6484601;39;8987;-64
2022/12/15 10:58:28;;;;;;;;;37.75;33.25;;;;;;;;6485586;39;8945;-64
2022/12/15 11:04:32;;;;;;;;;23.50;20.50;;;;;;;;6484192;39;9138;-64
2022/12/15 11:17:18;;;;;;;;;26.00;25.00;;;;;;;;6484389;39;9078;-65
2022/12/15 11:23:25;;;;;;;;;17.75;16.00;;;;;;;;6483865;39;8921;-67
2022/12/15 11:29:48;;;;;;;;;27.50;25.50;;;;;;;;6484482;39;8951;-64
2022/12/15 11:36:09;;;;;;;;;29.50;25.00;;;;;;;;6484788;39;8964;-64
2022/12/15 11:42:42;;;;;;;;;25.75;21.25;;;;;;;;6486979;39;8928;-65
2022/12/15 11:49:14;;;;;;;;;25.00;21.25;;;;;;;;6485867;31;8974;-64
2022/12/15 11:55:19;;;;;;;;;28.50;25.00;;;;;;;;6484968;46;8939;-65
2022/12/15 12:01:46;;;;;;;;;28.50;25.50;;;;;;;;6485642;46;8948;-64
2022/12/15 12:08:16;;;;;;;;;37.67;29.67;;;;;;;;6485766;46;8958;-66
2022/12/15 12:14:33;;;;;;;;;35.75;32.25;;;;;;;;6484898;31;8939;-64
2022/12/15 12:20:44;;;;;;;;;38.50;31.75;;;;;;;;6484157;39;9018;-65
2022/12/15 12:26:53;;;;;;;;;34.75;30.75;;;;;;;;6484376;39;8908;-65
2022/12/15 12:33:01;;;;;;;;;28.50;23.50;;;;;;;;6484670;39;9061;-65
2022/12/15 12:39:04;;;;;;;;;30.75;30.75;;;;;;;;6485463;31;8949;-64
2022/12/15 12:45:11;;;;;;;;;28.25;28.25;;;;;;;;6485689;39;8912;-66
2022/12/15 12:51:26;;;;;;;;;32.00;26.25;;;;;;;;6483798;31;8932;-65
2022/12/15 12:57:38;;;;;;;;;28.25;28.00;;;;;;;;6482942;39;8936;-64
2022/12/15 13:03:42;;;;;;;;;25.00;21.25;;;;;;;;6480018;39;8969;-64
2022/12/15 13:10:11;;;;;;;;;32.75;26.25;;;;;;;;6477567;31;8914;-65
2022/12/15 13:16:22;;;;;;;;;32.00;28.00;;;;;;;;6478999;31;8949;-65
2022/12/15 13:22:39;;;;;;;;;25.25;23.75;;;;;;;;6476782;46;8913;-65
2022/12/15 13:28:49;;;;;;;;;27.25;24.25;;;;;;;;6483377;39;8921;-62
2022/12/15 13:34:51;;;;;;;;;24.75;23.75;;;;;;;;6483319;39;8978;-65
2022/12/15 13:40:54;;;;;;;;;29.00;22.50;;;;;;;;6483517;31;8927;-64
2022/12/15 13:47:05;;;;;;;;;38.00;29.75;;;;;;;;6485000;31;8977;-64
2022/12/15 13:53:16;;;;;;;;;39.75;29.25;;;;;;;;6480600;39;8945;-64
2022/12/15 13:59:26;;;;;;;;;34.50;28.75;;;;;;;;6479775;39;9920;-64
2022/12/15 14:05:29;;;;;;;;;33.25;26.75;;;;;;;;6482239;39;9037;-62
2022/12/15 14:11:35;;;;;;;;;33.50;28.75;;;;;;;;6486929;39;8888;-63
2022/12/15 14:18:00;;;;;;;;;52.00;43.25;;;;;;;;6483687;39;8974;-64
2022/12/15 14:24:20;;;;;;;;;34.75;32.50;;;;;;;;6484926;39;8896;-64
2022/12/15 14:30:40;;;;;;;;;30.00;27.67;;;;;;;;6486724;39;8912;-64
2022/12/15 14:36:43;;;;;;;;;38.00;34.00;;;;;;;;6486865;39;9833;-63
2022/12/15 14:42:46;;;;;;;;;38.00;35.50;;;;;;;;6486039;31;8912;-65
2022/12/15 14:49:02;;;;;;;;;38.00;36.00;;;;;;;;6484968;46;8986;-64
2022/12/15 14:55:19;;;;;;;;;42.25;36.75;;;;;;;;6486695;31;9037;-64
2022/12/15 15:01:28;;;;;;;;;34.25;32.75;;;;;;;;6487197;31;8984;-64
2022/12/15 15:07:32;;;;;;;;;45.00;39.00;;;;;;;;6487768;39;9074;-62
2022/12/15 15:13:38;;;;;;;;;39.25;33.50;;;;;;;;6486792;39;8900;-63
2022/12/15 15:20:01;;;;;;;;;45.75;39.75;;;;;;;;6487569;39;8962;-63
2022/12/15 15:26:09;;;;;;;;;39.00;33.00;;;;;;;;6487149;39;8965;-62
2022/12/15 15:32:22;;;;;;;;;43.75;33.75;;;;;;;;6486499;31;8904;-64
2022/12/15 15:38:31;;;;;;;;;42.50;39.25;;;;;;;;6487476;31;8911;-66
2022/12/15 15:44:35;;;;;;;;;38.25;36.00;;;;;;;;6486977;31;9055;-63
2022/12/15 15:50:37;;;;;;;;;42.00;37.00;;;;;;;;6486422;47;8976;-63
2022/12/15 15:56:40;;;;;;;;;49.00;44.75;;;;;;;;6485312;39;8939;-63
2022/12/15 16:02:42;;;;;;;;;39.75;34.50;;;;;;;;6485655;47;8976;-63
2022/12/15 16:08:49;;;;;;;;;40.00;40.00;;;;;;;;6487196;39;8989;-64
2022/12/15 16:14:53;;;;;;;;;69.50;55.00;;;;;;;;6485464;39;8943;-62
2022/12/15 16:20:56;;;;;;;;;67.00;48.00;;;;;;;;6486180;31;8991;-63
2022/12/15 16:26:59;;;;;;;;;76.00;59.75;;;;;;;;6488090;39;9050;-63
2022/12/15 16:33:01;;;;;;;;;81.50;63.75;;;;;;;;6487580;46;8934;-63
2022/12/15 16:39:23;;;;;;;;;51.50;42.00;;;;;;;;6488755;39;9835;-63
2022/12/15 16:45:28;;;;;;;;;50.75;44.00;;;;;;;;6487221;39;8956;-64
2022/12/15 16:51:39;;;;;;;;;56.50;46.50;;;;;;;;6490207;31;9030;-62
2022/12/15 16:57:42;;;;;;;;;50.50;42.50;;;;;;;;6488942;39;8947;-63
2022/12/15 17:03:44;;;;;;;;;49.25;42.50;;;;;;;;6489406;31;9403;-62
2022/12/15 17:09:48;;;;;;;;;53.00;46.50;;;;;;;;6489159;39;8895;-62
2022/12/15 17:15:50;;;;;;;;;63.25;51.50;;;;;;;;6488633;31;9016;-62
2022/12/15 17:21:54;;;;;;;;;58.25;47.50;;;;;;;;6488656;31;8878;-62
2022/12/15 17:27:59;;;;;;;;;56.25;46.25;;;;;;;;6488185;39;8922;-63
2022/12/15 17:34:32;;;;;;;;;55.50;47.00;;;;;;;;6488023;46;8895;-62
2022/12/15 17:40:34;;;;;;;;;50.00;46.50;;;;;;;;6488421;39;8866;-63
2022/12/15 17:46:38;;;;;;;;;64.50;53.75;;;;;;;;6488032;39;8873;-63
2022/12/15 17:52:45;;;;;;;;;64.75;50.00;;;;;;;;6488228;39;8945;-63
2022/12/15 17:58:48;;;;;;;;;61.25;49.75;;;;;;;;6488547;31;8898;-63
2022/12/15 18:04:52;;;;;;;;;68.00;55.00;;;;;;;;6488408;46;8977;-62
2022/12/15 18:10:56;;;;;;;;;58.50;48.25;;;;;;;;6488521;39;9767;-62
2022/12/15 18:16:58;;;;;;;;;61.50;50.50;;;;;;;;6488224;31;8925;-62
2022/12/15 18:23:11;;;;;;;;;63.75;50.25;;;;;;;;6489322;39;8989;-61
2022/12/15 18:29:16;;;;;;;;;69.50;55.00;;;;;;;;6487867;46;8878;-61
2022/12/15 18:35:33;;;;;;;;;68.50;56.25;;;;;;;;6487750;39;8958;-62
2022/12/15 18:41:35;;;;;;;;;64.50;52.75;;;;;;;;6487700;31;9052;-64
2022/12/15 18:47:37;;;;;;;;;65.25;52.25;;;;;;;;6487429;39;8883;-62
2022/12/15 18:53:39;;;;;;;;;57.75;44.00;;;;;;;;6488195;39;8948;-61
2022/12/15 18:59:42;;;;;;;;;77.50;57.00;;;;;;;;6487547;31;9666;-61
2022/12/15 19:05:47;;;;;;;;;59.50;49.00;;;;;;;;6486854;39;8931;-62
2022/12/15 19:24:54;;;;;;;;;63.75;51.00;;;;;;;;6487826;31;8954;-62
2022/12/15 19:30:56;;;;;;;;;54.75;47.50;;;;;;;;6487344;39;8843;-62
2022/12/15 19:37:01;;;;;;;;;48.75;44.00;;;;;;;;6487318;47;10043;-61
2022/12/15 19:43:04;;;;;;;;;46.75;33.25;;;;;;;;6486167;31;8835;-62
2022/12/15 19:49:06;;;;;;;;;63.00;51.00;;;;;;;;6486747;39;8894;-62
2022/12/15 19:55:15;;;;;;;;;65.00;54.00;;;;;;;;6487841;31;9609;-62
2022/12/15 20:01:19;;;;;;;;;59.25;50.00;;;;;;;;6488498;39;8954;-62
2022/12/15 20:07:32;;;;;;;;;46.50;39.50;;;;;;;;6489905;39;8943;-63
2022/12/15 20:13:34;;;;;;;;;48.50;44.75;;;;;;;;6489161;39;8855;-61
2022/12/15 20:19:37;;;;;;;;;66.00;52.00;;;;;;;;6490522;31;8875;-62
2022/12/15 20:25:40;;;;;;;;;71.25;53.75;;;;;;;;6489790;31;8882;-62
2022/12/15 20:31:43;;;;;;;;;68.75;53.75;;;;;;;;6488638;46;8937;-62
2022/12/15 20:37:46;;;;;;;;;70.25;53.25;;;;;;;;6489519;31;8922;-63
2022/12/15 20:43:52;;;;;;;;;60.25;47.50;;;;;;;;6488683;46;8875;-61
2022/12/15 20:49:55;;;;;;;;;56.00;43.25;;;;;;;;6489108;46;8854;-62
2022/12/15 20:55:58;;;;;;;;;40.00;37.25;;;;;;;;6488491;31;8915;-62
2022/12/15 21:02:00;;;;;;;;;58.25;45.50;;;;;;;;6488464;31;9013;-61
2022/12/15 21:08:14;;;;;;;;;62.75;45.75;;;;;;;;6488065;39;8988;-62
2022/12/15 21:14:22;;;;;;;;;41.75;32.75;;;;;;;;6489081;39;8906;-62
2022/12/15 21:20:24;;;;;;;;;57.75;47.75;;;;;;;;6488285;39;8922;-62
2022/12/15 21:26:27;;;;;;;;;67.00;48.00;;;;;;;;6488666;39;9438;-61
2022/12/15 21:32:29;;;;;;;;;60.00;46.75;;;;;;;;6488767;46;8839;-62
2022/12/15 21:38:39;;;;;;;;;59.00;51.00;;;;;;;;6488441;39;9029;-63
2022/12/15 21:44:41;;;;;;;;;56.25;47.00;;;;;;;;6488380;39;8913;-62
2022/12/15 21:50:46;;;;;;;;;60.00;47.00;;;;;;;;6489137;39;8905;-63
2022/12/15 21:56:52;;;;;;;;;53.75;46.50;;;;;;;;6489128;39;8968;-62
2022/12/15 22:02:55;;;;;;;;;65.00;47.25;;;;;;;;6488505;46;9057;-62
2022/12/15 22:08:57;;;;;;;;;57.75;47.00;;;;;;;;6488626;39;8911;-63
2022/12/15 22:15:00;;;;;;;;;68.50;53.75;;;;;;;;6488452;31;8914;-62
2022/12/15 22:21:03;;;;;;;;;62.75;53.25;;;;;;;;6490390;36;8865;-62
2022/12/15 22:27:18;;;;;;;;;60.00;47.50;;;;;;;;6488508;39;8900;-64
2022/12/15 22:33:22;;;;;;;;;71.50;53.50;;;;;;;;6488264;39;9497;-60
2022/12/15 22:39:25;;;;;;;;;64.75;52.50;;;;;;;;6487968;31;8876;-61
2022/12/15 22:45:27;;;;;;;;;75.75;56.00;;;;;;;;6486919;39;8876;-61
2022/12/15 22:51:29;;;;;;;;;72.25;57.25;;;;;;;;6487724;46;9063;-61
2022/12/15 22:57:33;;;;;;;;;72.00;55.75;;;;;;;;6487690;31;8943;-61
2022/12/15 23:03:37;;;;;;;;;74.00;61.50;;;;;;;;6487853;31;8944;-61
2022/12/15 23:09:39;;;;;;;;;76.00;56.00;;;;;;;;6487920;39;8848;-61
2022/12/15 23:22:03;;;;;;;;;76.50;58.25;;;;;;;;6489022;31;9023;-62
2022/12/15 23:28:05;;;;;;;;;77.75;58.00;;;;;;;;6487427;47;8880;-62
2022/12/15 23:34:09;;;;;;;;;70.50;52.75;;;;;;;;6487844;46;8943;-63
2022/12/15 23:40:12;;;;;;;;;65.33;52.33;;;;;;;;6489944;39;9527;-62
2022/12/15 23:46:14;;;;;;;;;69.50;55.25;;;;;;;;6489696;39;9554;-62
2022/12/15 23:52:17;;;;;;;;;65.75;56.25;;;;;;;;6490399;31;8953;-61
2022/12/15 23:58:19;;;;;;;;;71.25;53.75;;;;;;;;6490037;31;8877;-63
